Rocky Comfort, Missouri
Current Conditions -  °F | °C
As of 6:15 PM on Tuesday 25 Nov 2014 (Local Time) from KHFJ Reporting Station
Clear Clear  
Wind Chill:   Ceiling: Unl
Heat Index:   Visibility: 10mi
Dew Point: -7°   Wind: 5mph
Humidity: 52%   Direction: 270°W
Pressure: 30.13"   Gusts: NA
Location:  36.75°N, 94.09°W
Report Text: KHFJ 260015Z AUTO 27004KT 10SM CLR 02/M07 A3013 RMK AO2
Loading
Personal Weather Stations






























Interactive Weather Map New forecast layout! Learn more

10-Day Weather Forecast

Advertisements
Track Severe Weather on mobile